sensor_id;sensor_type;location;lat;lon;timestamp;P1;durP1;ratioP1;P2;durP2;ratioP2
21488;SDS011;10906;45.194;5.684;2024-01-27T06:01:18;75.35;;;50.65;;
21488;SDS011;10906;45.194;5.684;2024-01-27T06:04:03;38.08;;;26.08;;
21488;SDS011;10906;45.194;5.684;2024-01-27T06:06:47;34.03;;;23.02;;
21488;SDS011;10906;45.194;5.684;2024-01-27T06:09:31;45.15;;;29.58;;
21488;SDS011;10906;45.194;5.684;2024-01-27T06:12:16;91.25;;;62.60;;
21488;SDS011;10906;45.194;5.684;2024-01-27T06:15:00;86.72;;;61.50;;
21488;SDS011;10906;45.194;5.684;2024-01-27T06:17:45;75.20;;;52.03;;
21488;SDS011;10906;45.194;5.684;2024-01-27T06:20:30;56.42;;;42.45;;
21488;SDS011;10906;45.194;5.684;2024-01-27T06:23:15;32.42;;;24.40;;
21488;SDS011;10906;45.194;5.684;2024-01-27T06:26:03;264.38;;;160.75;;
21488;SDS011;10906;45.194;5.684;2024-01-27T06:28:51;215.40;;;152.20;;
21488;SDS011;10906;45.194;5.684;2024-01-27T06:31:35;195.93;;;141.50;;
21488;SDS011;10906;45.194;5.684;2024-01-27T06:34:20;121.75;;;90.13;;
21488;SDS011;10906;45.194;5.684;2024-01-27T06:37:04;95.22;;;68.68;;
21488;SDS011;10906;45.194;5.684;2024-01-27T06:39:48;30.55;;;20.90;;
21488;SDS011;10906;45.194;5.684;2024-01-27T06:42:33;34.75;;;26.27;;
21488;SDS011;10906;45.194;5.684;2024-01-27T06:45:17;47.97;;;34.30;;
21488;SDS011;10906;45.194;5.684;2024-01-27T06:48:01;46.20;;;34.30;;
21488;SDS011;10906;45.194;5.684;2024-01-27T06:50:46;47.70;;;32.88;;
21488;SDS011;10906;45.194;5.684;2024-01-27T06:53:30;36.15;;;28.27;;
21488;SDS011;10906;45.194;5.684;2024-01-27T06:56:14;235.90;;;115.63;;
21488;SDS011;10906;45.194;5.684;2024-01-27T06:58:58;40.22;;;27.52;;
21488;SDS011;10906;45.194;5.684;2024-01-27T07:01:48;39.75;;;25.65;;
21488;SDS011;10906;45.194;5.684;2024-01-27T07:04:33;59.90;;;42.13;;
21488;SDS011;10906;45.194;5.684;2024-01-27T07:07:17;50.78;;;35.92;;
21488;SDS011;10906;45.194;5.684;2024-01-27T07:10:07;29.65;;;21.48;;
21488;SDS011;10906;45.194;5.684;2024-01-27T07:12:51;139.75;;;92.55;;
21488;SDS011;10906;45.194;5.684;2024-01-27T07:15:35;161.80;;;104.68;;
21488;SDS011;10906;45.194;5.684;2024-01-27T07:18:21;44.97;;;32.00;;
21488;SDS011;10906;45.194;5.684;2024-01-27T07:21:05;46.17;;;32.47;;
21488;SDS011;10906;45.194;5.684;2024-01-27T07:23:49;43.92;;;33.85;;
21488;SDS011;10906;45.194;5.684;2024-01-27T07:26:33;35.92;;;24.00;;
21488;SDS011;10906;45.194;5.684;2024-01-27T07:29:18;37.90;;;24.67;;
21488;SDS011;10906;45.194;5.684;2024-01-27T07:32:04;28.42;;;19.17;;
21488;SDS011;10906;45.194;5.684;2024-01-27T07:34:49;25.88;;;18.73;;
21488;SDS011;10906;45.194;5.684;2024-01-27T07:37:33;24.40;;;19.17;;
21488;SDS011;10906;45.194;5.684;2024-01-27T07:40:17;30.20;;;23.30;;
21488;SDS011;10906;45.194;5.684;2024-01-27T07:43:02;27.08;;;18.50;;
21488;SDS011;10906;45.194;5.684;2024-01-27T07:45:46;24.10;;;17.85;;
21488;SDS011;10906;45.194;5.684;2024-01-27T07:48:31;22.90;;;17.83;;
21488;SDS011;10906;45.194;5.684;2024-01-27T07:51:16;25.50;;;17.95;;
21488;SDS011;10906;45.194;5.684;2024-01-27T07:54:00;28.63;;;22.27;;
21488;SDS011;10906;45.194;5.684;2024-01-27T07:56:45;25.17;;;18.45;;
21488;SDS011;10906;45.194;5.684;2024-01-27T07:59:29;28.45;;;19.60;;
21488;SDS011;10906;45.194;5.684;2024-01-27T08:02:14;31.52;;;21.63;;
21488;SDS011;10906;45.194;5.684;2024-01-27T08:04:58;34.72;;;23.02;;
21488;SDS011;10906;45.194;5.684;2024-01-27T08:07:43;32.80;;;22.45;;
21488;SDS011;10906;45.194;5.684;2024-01-27T08:10:27;30.08;;;21.45;;
21488;SDS011;10906;45.194;5.684;2024-01-27T08:13:12;29.67;;;22.58;;
21488;SDS011;10906;45.194;5.684;2024-01-27T08:15:56;29.60;;;21.98;;
21488;SDS011;10906;45.194;5.684;2024-01-27T08:18:40;31.17;;;22.30;;
21488;SDS011;10906;45.194;5.684;2024-01-27T08:21:29;35.65;;;24.10;;
21488;SDS011;10906;45.194;5.684;2024-01-27T08:24:13;33.42;;;23.40;;
21488;SDS011;10906;45.194;5.684;2024-01-27T08:26:58;33.72;;;21.92;;
21488;SDS011;10906;45.194;5.684;2024-01-27T08:29:47;31.17;;;23.02;;
21488;SDS011;10906;45.194;5.684;2024-01-27T08:32:32;33.10;;;21.77;;
21488;SDS011;10906;45.194;5.684;2024-01-27T08:35:16;34.15;;;23.38;;
21488;SDS011;10906;45.194;5.684;2024-01-27T08:38:01;32.25;;;23.95;;
21488;SDS011;10906;45.194;5.684;2024-01-27T08:40:47;34.85;;;24.05;;
21488;SDS011;10906;45.194;5.684;2024-01-27T08:43:31;33.30;;;23.15;;
21488;SDS011;10906;45.194;5.684;2024-01-27T08:46:16;30.77;;;24.00;;
21488;SDS011;10906;45.194;5.684;2024-01-27T08:49:03;33.63;;;23.10;;
21488;SDS011;10906;45.194;5.684;2024-01-27T08:51:48;39.28;;;27.00;;
21488;SDS011;10906;45.194;5.684;2024-01-27T08:54:32;39.30;;;29.17;;
21488;SDS011;10906;45.194;5.684;2024-01-27T08:57:17;32.72;;;23.67;;
21488;SDS011;10906;45.194;5.684;2024-01-27T09:00:02;36.03;;;25.48;;
21488;SDS011;10906;45.194;5.684;2024-01-27T09:02:50;28.02;;;21.48;;
21488;SDS011;10906;45.194;5.684;2024-01-27T09:05:38;27.50;;;20.52;;
21488;SDS011;10906;45.194;5.684;2024-01-27T09:08:24;29.48;;;20.23;;
21488;SDS011;10906;45.194;5.684;2024-01-27T09:11:08;27.38;;;19.67;;
21488;SDS011;10906;45.194;5.684;2024-01-27T09:13:52;27.95;;;20.73;;
21488;SDS011;10906;45.194;5.684;2024-01-27T09:16:39;28.58;;;21.13;;
21488;SDS011;10906;45.194;5.684;2024-01-27T09:19:24;28.20;;;20.58;;
21488;SDS011;10906;45.194;5.684;2024-01-27T09:22:09;23.38;;;18.02;;
21488;SDS011;10906;45.194;5.684;2024-01-27T09:24:54;34.13;;;21.98;;
21488;SDS011;10906;45.194;5.684;2024-01-27T09:27:38;32.72;;;21.25;;
21488;SDS011;10906;45.194;5.684;2024-01-27T09:30:23;32.92;;;22.92;;
21488;SDS011;10906;45.194;5.684;2024-01-27T09:35:51;33.47;;;21.73;;
21488;SDS011;10906;45.194;5.684;2024-01-27T09:38:36;36.33;;;25.50;;
21488;SDS011;10906;45.194;5.684;2024-01-27T09:41:20;34.88;;;24.65;;
21488;SDS011;10906;45.194;5.684;2024-01-27T09:44:05;31.83;;;24.88;;
21488;SDS011;10906;45.194;5.684;2024-01-27T09:46:57;37.92;;;25.55;;
21488;SDS011;10906;45.194;5.684;2024-01-27T09:49:42;28.17;;;21.52;;
21488;SDS011;10906;45.194;5.684;2024-01-27T09:52:27;25.67;;;21.08;;
21488;SDS011;10906;45.194;5.684;2024-01-27T09:55:12;25.50;;;19.65;;
21488;SDS011;10906;45.194;5.684;2024-01-27T09:57:56;24.08;;;19.05;;
21488;SDS011;10906;45.194;5.684;2024-01-27T10:00:41;23.08;;;17.30;;
21488;SDS011;10906;45.194;5.684;2024-01-27T10:03:26;22.92;;;17.80;;
21488;SDS011;10906;45.194;5.684;2024-01-27T10:06:11;19.75;;;17.58;;
21488;SDS011;10906;45.194;5.684;2024-01-27T10:08:56;18.73;;;14.90;;
21488;SDS011;10906;45.194;5.684;2024-01-27T10:11:42;18.10;;;14.40;;
21488;SDS011;10906;45.194;5.684;2024-01-27T10:14:39;15.00;;;13.15;;
21488;SDS011;10906;45.194;5.684;2024-01-27T10:17:24;13.45;;;11.25;;
21488;SDS011;10906;45.194;5.684;2024-01-27T10:20:16;15.10;;;13.45;;
21488;SDS011;10906;45.194;5.684;2024-01-27T10:23:12;18.25;;;13.38;;
21488;SDS011;10906;45.194;5.684;2024-01-27T10:26:08;15.25;;;13.10;;
21488;SDS011;10906;45.194;5.684;2024-01-27T10:28:54;18.35;;;12.75;;
21488;SDS011;10906;45.194;5.684;2024-01-27T10:31:44;17.02;;;13.35;;
21488;SDS011;10906;45.194;5.684;2024-01-27T10:34:28;17.95;;;13.05;;
21488;SDS011;10906;45.194;5.684;2024-01-27T10:37:12;15.25;;;11.93;;
21488;SDS011;10906;45.194;5.684;2024-01-27T10:42:46;16.88;;;12.52;;
21488;SDS011;10906;45.194;5.684;2024-01-27T10:45:42;16.08;;;12.43;;
21488;SDS011;10906;45.194;5.684;2024-01-27T10:48:28;17.17;;;12.35;;
21488;SDS011;10906;45.194;5.684;2024-01-27T10:51:14;14.73;;;12.07;;
21488;SDS011;10906;45.194;5.684;2024-01-27T10:54:07;13.27;;;11.18;;
21488;SDS011;10906;45.194;5.684;2024-01-27T10:57:02;12.02;;;10.13;;
21488;SDS011;10906;45.194;5.684;2024-01-27T10:59:47;12.93;;;9.75;;
21488;SDS011;10906;45.194;5.684;2024-01-27T11:02:33;14.43;;;11.20;;
21488;SDS011;10906;45.194;5.684;2024-01-27T11:05:22;13.55;;;11.63;;
21488;SDS011;10906;45.194;5.684;2024-01-27T11:08:08;14.88;;;11.43;;
21488;SDS011;10906;45.194;5.684;2024-01-27T11:10:56;12.77;;;10.07;;
21488;SDS011;10906;45.194;5.684;2024-01-27T11:13:42;10.48;;;9.10;;
21488;SDS011;10906;45.194;5.684;2024-01-27T11:16:38;13.82;;;9.85;;
21488;SDS011;10906;45.194;5.684;2024-01-27T11:19:27;14.15;;;10.90;;
21488;SDS011;10906;45.194;5.684;2024-01-27T11:22:25;11.98;;;9.02;;
21488;SDS011;10906;45.194;5.684;2024-01-27T11:27:57;10.90;;;8.45;;
21488;SDS011;10906;45.194;5.684;2024-01-27T11:30:45;11.75;;;9.23;;
21488;SDS011;10906;45.194;5.684;2024-01-27T11:33:30;15.48;;;10.63;;
21488;SDS011;10906;45.194;5.684;2024-01-27T11:36:22;17.00;;;10.63;;
21488;SDS011;10906;45.194;5.684;2024-01-27T11:39:22;13.27;;;9.77;;
21488;SDS011;10906;45.194;5.684;2024-01-27T11:42:11;14.00;;;10.35;;
21488;SDS011;10906;45.194;5.684;2024-01-27T11:44:59;11.15;;;8.88;;
21488;SDS011;10906;45.194;5.684;2024-01-27T11:47:44;10.93;;;9.07;;
21488;SDS011;10906;45.194;5.684;2024-01-27T11:50:35;8.82;;;7.82;;
21488;SDS011;10906;45.194;5.684;2024-01-27T11:53:20;10.55;;;7.72;;
21488;SDS011;10906;45.194;5.684;2024-01-27T11:56:06;13.15;;;10.88;;
21488;SDS011;10906;45.194;5.684;2024-01-27T11:58:51;14.35;;;11.52;;
21488;SDS011;10906;45.194;5.684;2024-01-27T12:01:36;13.38;;;10.43;;
21488;SDS011;10906;45.194;5.684;2024-01-27T12:04:21;14.20;;;11.50;;
21488;SDS011;10906;45.194;5.684;2024-01-27T12:07:05;22.48;;;17.33;;
21488;SDS011;10906;45.194;5.684;2024-01-27T12:10:01;16.08;;;12.65;;
21488;SDS011;10906;45.194;5.684;2024-01-27T12:12:45;11.95;;;10.05;;
21488;SDS011;10906;45.194;5.684;2024-01-27T12:15:39;10.00;;;7.50;;
21488;SDS011;10906;45.194;5.684;2024-01-27T12:18:23;10.60;;;9.45;;
21488;SDS011;10906;45.194;5.684;2024-01-27T12:21:08;12.32;;;8.75;;
21488;SDS011;10906;45.194;5.684;2024-01-27T12:24:01;8.02;;;7.22;;
21488;SDS011;10906;45.194;5.684;2024-01-27T12:26:46;8.95;;;6.63;;
21488;SDS011;10906;45.194;5.684;2024-01-27T12:29:31;8.52;;;5.95;;
21488;SDS011;10906;45.194;5.684;2024-01-27T12:32:17;5.60;;;5.03;;
21488;SDS011;10906;45.194;5.684;2024-01-27T12:35:05;6.95;;;5.07;;
21488;SDS011;10906;45.194;5.684;2024-01-27T12:37:50;6.03;;;5.30;;
21488;SDS011;10906;45.194;5.684;2024-01-27T12:40:35;6.07;;;5.10;;
21488;SDS011;10906;45.194;5.684;2024-01-27T12:43:21;7.63;;;5.65;;
21488;SDS011;10906;45.194;5.684;2024-01-27T12:46:07;7.75;;;5.05;;
21488;SDS011;10906;45.194;5.684;2024-01-27T12:48:52;6.18;;;4.97;;
21488;SDS011;10906;45.194;5.684;2024-01-27T12:51:37;5.55;;;4.53;;
21488;SDS011;10906;45.194;5.684;2024-01-27T12:54:21;7.25;;;4.40;;
21488;SDS011;10906;45.194;5.684;2024-01-27T12:57:08;11.90;;;7.90;;
21488;SDS011;10906;45.194;5.684;2024-01-27T13:00:02;11.00;;;7.80;;
21488;SDS011;10906;45.194;5.684;2024-01-27T13:02:53;11.65;;;7.30;;
21488;SDS011;10906;45.194;5.684;2024-01-27T13:05:38;12.77;;;6.47;;
21488;SDS011;10906;45.194;5.684;2024-01-27T13:08:22;5.95;;;5.03;;
21488;SDS011;10906;45.194;5.684;2024-01-27T13:11:07;6.35;;;4.35;;
21488;SDS011;10906;45.194;5.684;2024-01-27T13:13:52;5.05;;;4.55;;
21488;SDS011;10906;45.194;5.684;2024-01-27T13:16:36;6.07;;;4.38;;
21488;SDS011;10906;45.194;5.684;2024-01-27T13:19:20;5.78;;;4.45;;
21488;SDS011;10906;45.194;5.684;2024-01-27T13:22:06;5.80;;;4.32;;
21488;SDS011;10906;45.194;5.684;2024-01-27T13:24:51;4.57;;;3.50;;
21488;SDS011;10906;45.194;5.684;2024-01-27T13:27:35;6.22;;;4.07;;
21488;SDS011;10906;45.194;5.684;2024-01-27T13:30:20;5.85;;;4.03;;
21488;SDS011;10906;45.194;5.684;2024-01-27T13:35:48;4.63;;;4.20;;
21488;SDS011;10906;45.194;5.684;2024-01-27T13:38:33;5.65;;;3.10;;
21488;SDS011;10906;45.194;5.684;2024-01-27T13:41:19;5.22;;;3.83;;
21488;SDS011;10906;45.194;5.684;2024-01-27T13:44:03;6.05;;;4.68;;
21488;SDS011;10906;45.194;5.684;2024-01-27T13:46:48;4.05;;;3.30;;
21488;SDS011;10906;45.194;5.684;2024-01-27T13:49:32;5.75;;;4.20;;
21488;SDS011;10906;45.194;5.684;2024-01-27T13:52:17;4.97;;;4.47;;
21488;SDS011;10906;45.194;5.684;2024-01-27T13:55:01;5.60;;;3.78;;
21488;SDS011;10906;45.194;5.684;2024-01-27T13:57:46;5.68;;;4.30;;
21488;SDS011;10906;45.194;5.684;2024-01-27T14:03:17;5.97;;;3.65;;
21488;SDS011;10906;45.194;5.684;2024-01-27T14:06:02;4.38;;;3.90;;
21488;SDS011;10906;45.194;5.684;2024-01-27T14:08:47;5.78;;;4.03;;
21488;SDS011;10906;45.194;5.684;2024-01-27T14:11:31;4.90;;;3.95;;
21488;SDS011;10906;45.194;5.684;2024-01-27T14:14:16;6.60;;;4.32;;
21488;SDS011;10906;45.194;5.684;2024-01-27T14:17:00;4.60;;;4.10;;
21488;SDS011;10906;45.194;5.684;2024-01-27T14:19:45;5.05;;;3.97;;
21488;SDS011;10906;45.194;5.684;2024-01-27T14:22:31;6.05;;;3.63;;
21488;SDS011;10906;45.194;5.684;2024-01-27T14:25:18;4.43;;;3.53;;
21488;SDS011;10906;45.194;5.684;2024-01-27T14:28:06;6.18;;;3.58;;
21488;SDS011;10906;45.194;5.684;2024-01-27T14:30:53;9.23;;;5.90;;
21488;SDS011;10906;45.194;5.684;2024-01-27T14:33:37;8.48;;;6.22;;
21488;SDS011;10906;45.194;5.684;2024-01-27T14:36:21;6.90;;;5.38;;
21488;SDS011;10906;45.194;5.684;2024-01-27T14:39:09;5.18;;;3.88;;
21488;SDS011;10906;45.194;5.684;2024-01-27T14:41:54;4.18;;;3.70;;
21488;SDS011;10906;45.194;5.684;2024-01-27T14:44:38;3.38;;;2.85;;
21488;SDS011;10906;45.194;5.684;2024-01-27T14:47:23;4.72;;;3.40;;
21488;SDS011;10906;45.194;5.684;2024-01-27T14:50:08;4.65;;;3.33;;
21488;SDS011;10906;45.194;5.684;2024-01-27T14:52:53;5.07;;;3.42;;
21488;SDS011;10906;45.194;5.684;2024-01-27T14:55:37;6.20;;;3.42;;
21488;SDS011;10906;45.194;5.684;2024-01-27T14:58:22;10.98;;;3.80;;
21488;SDS011;10906;45.194;5.684;2024-01-27T15:01:07;5.72;;;3.90;;
21488;SDS011;10906;45.194;5.684;2024-01-27T15:03:51;5.03;;;3.63;;
21488;SDS011;10906;45.194;5.684;2024-01-27T15:06:36;5.13;;;3.63;;
21488;SDS011;10906;45.194;5.684;2024-01-27T15:09:22;6.70;;;4.22;;
21488;SDS011;10906;45.194;5.684;2024-01-27T15:12:07;5.78;;;4.63;;
21488;SDS011;10906;45.194;5.684;2024-01-27T15:14:51;9.30;;;4.60;;
21488;SDS011;10906;45.194;5.684;2024-01-27T15:17:36;5.85;;;4.60;;
21488;SDS011;10906;45.194;5.684;2024-01-27T15:20:20;7.07;;;4.93;;
21488;SDS011;10906;45.194;5.684;2024-01-27T15:23:04;7.18;;;4.93;;
21488;SDS011;10906;45.194;5.684;2024-01-27T15:25:49;8.85;;;5.93;;
21488;SDS011;10906;45.194;5.684;2024-01-27T15:28:33;8.77;;;5.43;;
21488;SDS011;10906;45.194;5.684;2024-01-27T15:31:18;7.28;;;5.38;;
21488;SDS011;10906;45.194;5.684;2024-01-27T15:34:02;9.95;;;7.00;;
21488;SDS011;10906;45.194;5.684;2024-01-27T15:36:48;14.18;;;7.93;;
21488;SDS011;10906;45.194;5.684;2024-01-27T15:39:33;10.90;;;7.63;;
21488;SDS011;10906;45.194;5.684;2024-01-27T15:42:17;12.80;;;7.95;;
21488;SDS011;10906;45.194;5.684;2024-01-27T15:45:02;20.33;;;12.90;;
21488;SDS011;10906;45.194;5.684;2024-01-27T15:47:48;13.73;;;10.18;;
21488;SDS011;10906;45.194;5.684;2024-01-27T15:50:32;9.23;;;6.97;;
21488;SDS011;10906;45.194;5.684;2024-01-27T15:53:17;7.50;;;6.32;;
21488;SDS011;10906;45.194;5.684;2024-01-27T15:56:01;7.97;;;6.88;;
21488;SDS011;10906;45.194;5.684;2024-01-27T15:58:46;12.38;;;9.15;;
21488;SDS011;10906;45.194;5.684;2024-01-27T16:01:31;10.57;;;8.05;;
21488;SDS011;10906;45.194;5.684;2024-01-27T16:06:59;11.13;;;7.00;;
21488;SDS011;10906;45.194;5.684;2024-01-27T16:09:46;10.00;;;5.88;;
21488;SDS011;10906;45.194;5.684;2024-01-27T16:12:30;9.32;;;5.68;;
21488;SDS011;10906;45.194;5.684;2024-01-27T16:15:16;7.82;;;5.68;;
21488;SDS011;10906;45.194;5.684;2024-01-27T16:20:44;5.68;;;5.10;;
21488;SDS011;10906;45.194;5.684;2024-01-27T16:23:33;7.10;;;4.72;;
21488;SDS011;10906;45.194;5.684;2024-01-27T16:26:17;8.48;;;4.90;;
21488;SDS011;10906;45.194;5.684;2024-01-27T16:29:02;5.22;;;4.25;;
21488;SDS011;10906;45.194;5.684;2024-01-27T16:31:47;4.68;;;4.15;;
21488;SDS011;10906;45.194;5.684;2024-01-27T16:34:31;4.97;;;3.92;;
21488;SDS011;10906;45.194;5.684;2024-01-27T16:37:15;6.80;;;4.72;;
21488;SDS011;10906;45.194;5.684;2024-01-27T16:42:44;7.00;;;5.68;;
21488;SDS011;10906;45.194;5.684;2024-01-27T16:45:28;7.47;;;6.10;;
21488;SDS011;10906;45.194;5.684;2024-01-27T16:48:16;6.70;;;4.82;;
21488;SDS011;10906;45.194;5.684;2024-01-27T16:51:00;7.80;;;6.07;;
21488;SDS011;10906;45.194;5.684;2024-01-27T16:53:47;9.35;;;7.70;;
21488;SDS011;10906;45.194;5.684;2024-01-27T16:56:31;8.57;;;7.22;;
21488;SDS011;10906;45.194;5.684;2024-01-27T16:59:15;9.35;;;6.38;;
21488;SDS011;10906;45.194;5.684;2024-01-27T17:01:59;7.13;;;5.10;;
21488;SDS011;10906;45.194;5.684;2024-01-27T17:04:44;9.95;;;7.97;;
21488;SDS011;10906;45.194;5.684;2024-01-27T17:07:33;8.13;;;5.90;;
21488;SDS011;10906;45.194;5.684;2024-01-27T17:10:18;6.22;;;5.25;;
21488;SDS011;10906;45.194;5.684;2024-01-27T17:13:02;7.25;;;5.30;;
21488;SDS011;10906;45.194;5.684;2024-01-27T17:15:47;8.75;;;5.88;;
21488;SDS011;10906;45.194;5.684;2024-01-27T17:18:32;6.38;;;4.90;;
21488;SDS011;10906;45.194;5.684;2024-01-27T17:21:17;6.90;;;5.13;;
21488;SDS011;10906;45.194;5.684;2024-01-27T17:24:05;9.18;;;4.05;;
21488;SDS011;10906;45.194;5.684;2024-01-27T17:26:50;4.88;;;4.00;;
21488;SDS011;10906;45.194;5.684;2024-01-27T17:29:35;5.75;;;4.10;;
21488;SDS011;10906;45.194;5.684;2024-01-27T17:32:19;5.85;;;4.20;;
21488;SDS011;10906;45.194;5.684;2024-01-27T17:35:04;7.43;;;4.55;;
21488;SDS011;10906;45.194;5.684;2024-01-27T17:37:51;5.68;;;4.38;;
21488;SDS011;10906;45.194;5.684;2024-01-27T17:40:36;7.00;;;4.45;;
21488;SDS011;10906;45.194;5.684;2024-01-27T17:43:20;9.50;;;6.90;;
21488;SDS011;10906;45.194;5.684;2024-01-27T17:46:05;9.50;;;7.40;;
21488;SDS011;10906;45.194;5.684;2024-01-27T17:48:49;12.48;;;7.10;;
21488;SDS011;10906;45.194;5.684;2024-01-27T17:51:34;10.68;;;6.80;;
21488;SDS011;10906;45.194;5.684;2024-01-27T17:54:18;10.30;;;5.57;;
21488;SDS011;10906;45.194;5.684;2024-01-27T17:59:48;7.95;;;5.20;;
21488;SDS011;10906;45.194;5.684;2024-01-27T18:02:32;5.93;;;4.95;;
21488;SDS011;10906;45.194;5.684;2024-01-27T18:05:17;6.43;;;4.72;;
21488;SDS011;10906;45.194;5.684;2024-01-27T18:08:01;8.80;;;5.60;;
21488;SDS011;10906;45.194;5.684;2024-01-27T18:10:46;8.27;;;5.30;;
21488;SDS011;10906;45.194;5.684;2024-01-27T18:13:30;8.57;;;5.13;;
21488;SDS011;10906;45.194;5.684;2024-01-27T18:16:15;5.70;;;4.15;;
21488;SDS011;10906;45.194;5.684;2024-01-27T18:18:59;7.50;;;4.40;;
21488;SDS011;10906;45.194;5.684;2024-01-27T18:21:44;6.75;;;4.57;;
21488;SDS011;10906;45.194;5.684;2024-01-27T18:27:12;7.10;;;5.32;;
21488;SDS011;10906;45.194;5.684;2024-01-27T18:30:00;6.38;;;4.57;;
21488;SDS011;10906;45.194;5.684;2024-01-27T18:32:47;11.63;;;7.65;;
21488;SDS011;10906;45.194;5.684;2024-01-27T18:35:31;13.60;;;8.18;;
21488;SDS011;10906;45.194;5.684;2024-01-27T18:38:16;10.05;;;7.30;;
21488;SDS011;10906;45.194;5.684;2024-01-27T18:41:01;9.68;;;7.78;;
21488;SDS011;10906;45.194;5.684;2024-01-27T18:43:45;6.32;;;4.80;;
21488;SDS011;10906;45.194;5.684;2024-01-27T18:46:29;6.43;;;4.45;;
21488;SDS011;10906;45.194;5.684;2024-01-27T18:49:13;5.30;;;4.10;;
21488;SDS011;10906;45.194;5.684;2024-01-27T18:51:59;8.07;;;4.80;;
21488;SDS011;10906;45.194;5.684;2024-01-27T18:54:43;6.53;;;4.55;;
21488;SDS011;10906;45.194;5.684;2024-01-27T18:57:30;6.55;;;5.47;;
21488;SDS011;10906;45.194;5.684;2024-01-27T19:00:15;9.00;;;6.32;;
21488;SDS011;10906;45.194;5.684;2024-01-27T19:03:05;6.25;;;4.85;;
21488;SDS011;10906;45.194;5.684;2024-01-27T19:05:50;8.30;;;6.38;;
21488;SDS011;10906;45.194;5.684;2024-01-27T19:08:34;7.32;;;5.38;;
21488;SDS011;10906;45.194;5.684;2024-01-27T19:11:19;11.77;;;6.32;;
21488;SDS011;10906;45.194;5.684;2024-01-27T19:14:07;15.20;;;8.20;;
21488;SDS011;10906;45.194;5.684;2024-01-27T19:16:55;10.00;;;6.93;;
21488;SDS011;10906;45.194;5.684;2024-01-27T19:19:41;9.48;;;7.03;;
21488;SDS011;10906;45.194;5.684;2024-01-27T19:22:25;17.35;;;10.07;;
21488;SDS011;10906;45.194;5.684;2024-01-27T19:25:09;10.63;;;7.07;;
21488;SDS011;10906;45.194;5.684;2024-01-27T19:27:54;9.80;;;6.53;;
21488;SDS011;10906;45.194;5.684;2024-01-27T19:30:38;7.57;;;6.05;;
21488;SDS011;10906;45.194;5.684;2024-01-27T19:33:23;7.15;;;5.85;;
21488;SDS011;10906;45.194;5.684;2024-01-27T19:36:08;7.82;;;5.70;;
21488;SDS011;10906;45.194;5.684;2024-01-27T19:38:53;9.20;;;6.40;;
21488;SDS011;10906;45.194;5.684;2024-01-27T19:41:38;7.60;;;6.05;;
21488;SDS011;10906;45.194;5.684;2024-01-27T19:44:37;8.50;;;5.93;;
21488;SDS011;10906;45.194;5.684;2024-01-27T19:47:22;9.90;;;6.18;;
21488;SDS011;10906;45.194;5.684;2024-01-27T19:50:07;8.70;;;5.72;;
21488;SDS011;10906;45.194;5.684;2024-01-27T19:53:13;9.77;;;5.65;;
21488;SDS011;10906;45.194;5.684;2024-01-27T19:56:02;8.40;;;5.95;;
21488;SDS011;10906;45.194;5.684;2024-01-27T19:59:00;8.68;;;6.00;;
21488;SDS011;10906;45.194;5.684;2024-01-27T20:01:45;13.35;;;7.90;;
21488;SDS011;10906;45.194;5.684;2024-01-27T20:04:30;18.20;;;11.82;;
21488;SDS011;10906;45.194;5.684;2024-01-27T20:07:29;17.95;;;10.15;;
21488;SDS011;10906;45.194;5.684;2024-01-27T20:11:06;13.57;;;9.25;;
21488;SDS011;10906;45.194;5.684;2024-01-27T20:17:32;14.38;;;12.18;;
21488;SDS011;10906;45.194;5.684;2024-01-27T20:20:32;10.57;;;6.78;;
21488;SDS011;10906;45.194;5.684;2024-01-27T20:23:40;8.60;;;6.20;;
21488;SDS011;10906;45.194;5.684;2024-01-27T20:26:37;11.23;;;8.27;;
21488;SDS011;10906;45.194;5.684;2024-01-27T20:33:23;12.27;;;8.63;;
21488;SDS011;10906;45.194;5.684;2024-01-27T20:40:00;20.90;;;12.95;;
21488;SDS011;10906;45.194;5.684;2024-01-27T20:43:32;39.72;;;28.58;;
21488;SDS011;10906;45.194;5.684;2024-01-27T20:47:24;51.35;;;37.60;;
21488;SDS011;10906;45.194;5.684;2024-01-27T20:53:55;35.28;;;26.30;;
21488;SDS011;10906;45.194;5.684;2024-01-27T20:57:12;30.77;;;22.70;;
21488;SDS011;10906;45.194;5.684;2024-01-27T21:04:05;12.57;;;9.52;;
21488;SDS011;10906;45.194;5.684;2024-01-27T21:07:12;13.07;;;8.40;;
21488;SDS011;10906;45.194;5.684;2024-01-27T21:10:34;13.00;;;8.68;;
21488;SDS011;10906;45.194;5.684;2024-01-27T21:13:40;12.93;;;8.70;;
21488;SDS011;10906;45.194;5.684;2024-01-27T21:16:24;14.90;;;10.15;;
21488;SDS011;10906;45.194;5.684;2024-01-27T21:21:59;15.13;;;13.32;;
21488;SDS011;10906;45.194;5.684;2024-01-27T21:25:00;15.70;;;12.70;;
21488;SDS011;10906;45.194;5.684;2024-01-27T21:27:55;16.63;;;11.88;;
21488;SDS011;10906;45.194;5.684;2024-01-27T21:31:23;11.70;;;8.85;;
21488;SDS011;10906;45.194;5.684;2024-01-27T21:34:13;10.80;;;8.38;;
21488;SDS011;10906;45.194;5.684;2024-01-27T21:37:00;13.63;;;8.77;;
21488;SDS011;10906;45.194;5.684;2024-01-27T21:39:47;11.32;;;8.30;;
21488;SDS011;10906;45.194;5.684;2024-01-27T21:43:04;11.55;;;8.77;;
21488;SDS011;10906;45.194;5.684;2024-01-27T21:49:52;10.95;;;8.75;;
21488;SDS011;10906;45.194;5.684;2024-01-27T21:52:37;12.25;;;7.80;;
21488;SDS011;10906;45.194;5.684;2024-01-27T21:55:27;12.18;;;9.93;;
21488;SDS011;10906;45.194;5.684;2024-01-27T21:58:54;14.63;;;9.65;;
21488;SDS011;10906;45.194;5.684;2024-01-27T22:01:57;16.25;;;8.68;;
21488;SDS011;10906;45.194;5.684;2024-01-27T22:04:46;16.67;;;10.20;;
21488;SDS011;10906;45.194;5.684;2024-01-27T22:07:38;10.93;;;8.20;;
21488;SDS011;10906;45.194;5.684;2024-01-27T22:10:25;12.02;;;8.55;;
21488;SDS011;10906;45.194;5.684;2024-01-27T22:13:12;9.77;;;7.30;;
21488;SDS011;10906;45.194;5.684;2024-01-27T22:16:24;9.27;;;7.20;;
21488;SDS011;10906;45.194;5.684;2024-01-27T22:19:41;9.70;;;8.10;;
21488;SDS011;10906;45.194;5.684;2024-01-27T22:26:24;17.10;;;12.52;;
21488;SDS011;10906;45.194;5.684;2024-01-27T22:36:07;15.40;;;11.02;;
21488;SDS011;10906;45.194;5.684;2024-01-27T22:39:18;16.35;;;13.40;;
21488;SDS011;10906;45.194;5.684;2024-01-27T22:42:15;15.73;;;12.32;;
21488;SDS011;10906;45.194;5.684;2024-01-27T22:45:43;19.33;;;13.57;;
21488;SDS011;10906;45.194;5.684;2024-01-27T22:48:28;11.43;;;9.45;;
